Time;durP1;ratioP1;P1;durP2;ratioP2;P2;SDS_P1;SDS_P2;PMS_P1;PMS_P2;Temp;Humidity;BMP_temperature;BMP_pressure;BME280_temperature;BME280_humidity;BME280_pressure;Samples;Min_cycle;Max_cycle;Signal;HPM_P1;HPM_P2
2022/07/09 00:01:47;;;;;;;7.93;2.10;;;;;;;15.11;74.53;100077.78;8415838;28;20048;-75
2022/07/09 00:05:48;;;;;;;5.95;2.00;;;;;;;15.02;75.00;100074.22;8427730;28;20123;-76
2022/07/09 00:09:51;;;;;;;11.40;2.40;;;;;;;14.93;75.47;100076.09;8391031;28;20495;-75
2022/07/09 00:13:54;;;;;;;12.45;2.72;;;;;;;14.92;75.55;100082.66;8425173;28;20044;-75
2022/07/09 00:17:55;;;;;;;13.88;2.63;;;;;;;14.79;76.23;100077.03;8426273;28;20044;-74
2022/07/09 00:21:56;;;;;;;13.55;2.60;;;;;;;14.73;76.28;100067.41;8419408;28;20097;-75
2022/07/09 00:25:57;;;;;;;15.13;2.50;;;;;;;14.65;76.85;100076.28;8417571;28;20036;-75
2022/07/09 00:29:58;;;;;;;13.23;2.92;;;;;;;14.57;77.23;100074.34;8426711;28;20052;-75
2022/07/09 00:33:59;;;;;;;10.88;2.67;;;;;;;14.53;77.45;100075.28;8384924;28;20551;-75
2022/07/09 00:38:00;;;;;;;13.57;2.60;;;;;;;14.44;78.19;100064.34;8419824;28;20043;-75
2022/07/09 00:42:05;;;;;;;10.43;2.35;;;;;;;14.32;78.80;100064.09;8419349;28;20509;-75
2022/07/09 00:46:06;;;;;;;7.22;2.47;;;;;;;14.24;79.24;100064.81;8427025;28;20075;-75
2022/07/09 00:50:07;;;;;;;8.23;2.50;;;;;;;14.15;79.87;100061.25;8420745;28;20502;-75
2022/07/09 00:54:08;;;;;;;7.32;2.63;;;;;;;14.02;80.35;100056.66;8360831;28;20086;-75
2022/07/09 00:58:12;;;;;;;8.95;2.50;;;;;;;13.90;80.62;100055.34;8394504;28;20052;-76
2022/07/09 01:02:13;;;;;;;8.40;2.40;;;;;;;13.83;80.92;100049.50;8419388;28;20138;-75
2022/07/09 01:06:15;;;;;;;7.28;3.00;;;;;;;13.76;81.66;100042.88;8410027;28;20383;-75
2022/07/09 01:10:16;;;;;;;14.50;3.78;;;;;;;13.67;81.87;100029.25;8385914;28;20566;-75
2022/07/09 01:14:17;;;;;;;11.18;4.22;;;;;;;13.60;82.00;100033.50;8406057;28;20080;-74
2022/07/09 01:18:19;;;;;;;10.43;3.50;;;;;;;13.53;82.33;100028.50;8363686;28;20049;-75
2022/07/09 01:22:20;;;;;;;9.63;4.03;;;;;;;13.44;82.48;100030.31;8384189;28;20048;-75
2022/07/09 01:26:21;;;;;;;11.77;3.90;;;;;;;13.34;82.88;100025.09;8396781;28;20052;-75
2022/07/09 01:30:28;;;;;;;8.27;3.30;;;;;;;13.25;83.27;100021.50;8372064;28;20044;-74
2022/07/09 01:34:30;;;;;;;10.38;3.33;;;;;;;13.17;83.30;100019.50;8406198;28;20071;-75
2022/07/09 01:38:31;;;;;;;10.02;3.22;;;;;;;13.05;83.70;100023.53;8368069;28;20073;-75
2022/07/09 01:42:32;;;;;;;7.82;3.10;;;;;;;12.99;84.19;100013.09;8407918;28;20044;-75
2022/07/09 01:46:33;;;;;;;10.57;3.30;;;;;;;12.97;84.58;100016.09;8428208;28;20494;-75
2022/07/09 01:50:34;;;;;;;13.25;3.80;;;;;;;12.96;84.62;100013.66;8389829;28;20114;-75
2022/07/09 01:54:35;;;;;;;7.80;3.40;;;;;;;12.96;84.57;99998.22;8387226;28;20051;-75
2022/07/09 01:58:36;;;;;;;5.28;3.00;;;;;;;12.98;84.99;100001.44;8407471;28;20042;-75
2022/07/09 02:02:37;;;;;;;11.98;3.63;;;;;;;13.10;84.47;99999.00;8407064;28;20564;-74
2022/07/09 02:06:38;;;;;;;9.52;2.97;;;;;;;13.26;84.25;100001.44;8387936;28;20044;-75
2022/07/09 02:10:39;;;;;;;7.00;3.13;;;;;;;13.39;83.89;99995.97;8423807;28;20445;-74
2022/07/09 02:14:40;;;;;;;9.73;3.47;;;;;;;13.46;84.10;99990.13;8425079;28;20120;-76
2022/07/09 02:18:41;;;;;;;6.68;2.72;;;;;;;13.55;84.36;99988.28;8423811;28;20049;-75
2022/07/09 02:22:42;;;;;;;11.35;2.90;;;;;;;13.66;84.80;99984.22;8429126;28;20093;-76
2022/07/09 02:26:46;;;;;;;8.77;3.05;;;;;;;13.75;84.76;99993.22;8431067;28;20046;-76
2022/07/09 02:30:46;;;;;;;12.45;3.30;;;;;;;13.84;84.64;99977.81;8430796;28;20131;-75
2022/07/09 02:34:48;;;;;;;9.73;2.97;;;;;;;13.89;84.74;99983.13;8393440;28;20076;-75
2022/07/09 02:38:48;;;;;;;9.90;3.10;;;;;;;13.92;84.53;99977.06;8420762;28;20044;-75
2022/07/09 02:42:49;;;;;;;11.43;2.92;;;;;;;13.93;84.77;99978.66;8393421;28;20407;-75
2022/07/09 02:46:50;;;;;;;10.15;2.78;;;;;;;13.91;84.94;99978.16;8392379;28;20089;-75
2022/07/09 02:50:52;;;;;;;15.85;3.30;;;;;;;13.88;84.97;99984.22;8424782;28;20591;-74
2022/07/09 02:54:53;;;;;;;13.15;2.90;;;;;;;13.88;85.35;99984.22;8377050;28;20122;-76
2022/07/09 02:58:54;;;;;;;8.88;3.20;;;;;;;13.88;85.30;99981.50;8428839;28;20047;-75
2022/07/09 03:02:55;;;;;;;11.32;2.90;;;;;;;13.93;85.26;99967.00;8429995;28;20032;-75
2022/07/09 03:06:56;;;;;;;11.57;3.47;;;;;;;14.01;85.21;99968.19;8430182;28;20046;-75
2022/07/09 03:10:57;;;;;;;9.80;2.70;;;;;;;14.05;85.07;99969.16;8419753;28;20083;-75
2022/07/09 03:14:58;;;;;;;13.40;3.03;;;;;;;14.05;85.02;99969.16;8429594;28;20572;-75
2022/07/09 03:18:59;;;;;;;7.05;2.97;;;;;;;14.06;85.12;99959.91;8430130;28;20071;-76
2022/07/09 03:23:00;;;;;;;9.93;3.08;;;;;;;14.02;85.07;99958.91;8422417;28;20052;-74
2022/07/09 03:27:01;;;;;;;11.32;3.25;;;;;;;14.01;85.17;99957.31;8426168;28;20056;-76
2022/07/09 03:31:02;;;;;;;7.07;2.95;;;;;;;14.02;85.10;99948.03;8427677;28;20494;-75
2022/07/09 03:35:04;;;;;;;12.38;2.92;;;;;;;14.04;85.00;99956.69;8424992;28;20070;-75
2022/07/09 03:39:05;;;;;;;12.90;3.50;;;;;;;14.08;84.99;99963.09;8428527;28;20052;-76
2022/07/09 03:43:05;;;;;;;8.05;2.97;;;;;;;14.09;84.91;99959.28;8428361;28;20123;-76
2022/07/09 03:47:07;;;;;;;12.23;3.38;;;;;;;14.14;84.62;99946.38;8391528;28;20054;-75
2022/07/09 03:51:08;;;;;;;9.23;3.03;;;;;;;14.21;84.53;99948.63;8420774;28;20075;-75
2022/07/09 03:55:09;;;;;;;7.32;3.10;;;;;;;14.28;84.21;99949.78;8392416;28;20048;-75
2022/07/09 03:59:10;;;;;;;8.95;3.15;;;;;;;14.34;84.02;99955.88;8428261;28;20509;-75
2022/07/09 04:03:11;;;;;;;11.68;3.38;;;;;;;14.43;83.81;99948.63;8421182;28;20438;-75
2022/07/09 04:07:12;;;;;;;8.95;2.58;;;;;;;14.55;83.38;99948.81;8410371;28;20113;-75
2022/07/09 04:11:13;;;;;;;13.25;3.42;;;;;;;14.69;82.82;99951.44;8428050;28;20381;-75
2022/07/09 04:15:14;;;;;;;11.82;2.92;;;;;;;14.76;82.74;99951.75;8407653;28;20086;-75
2022/07/09 04:19:15;;;;;;;7.38;2.70;;;;;;;14.74;82.86;99943.94;8422730;28;20194;-76
2022/07/09 04:23:16;;;;;;;12.63;3.20;;;;;;;14.75;82.67;99945.50;8428841;28;20078;-75
2022/07/09 04:27:17;;;;;;;10.65;3.15;;;;;;;14.77;82.74;99947.91;8405787;28;20044;-77
2022/07/09 04:31:19;;;;;;;11.77;3.72;;;;;;;14.78;82.99;99939.47;8427342;28;20052;-75
2022/07/09 04:35:20;;;;;;;11.55;3.47;;;;;;;14.85;82.86;99939.00;8391385;28;20055;-75
2022/07/09 04:39:24;;;;;;;8.60;2.80;;;;;;;14.93;82.74;99940.13;8426601;28;20181;-76
2022/07/09 04:43:25;;;;;;;10.80;3.28;;;;;;;14.99;82.57;99944.28;8418776;28;20417;-75
2022/07/09 04:47:26;;;;;;;5.22;2.75;;;;;;;15.13;82.10;99939.50;8384844;28;20182;-76
2022/07/09 04:51:27;;;;;;;10.90;3.58;;;;;;;15.27;81.39;99945.63;8422610;28;20490;-76
2022/07/09 04:55:27;;;;;;;7.45;3.40;;;;;;;15.23;81.29;99950.06;8423324;28;20080;-76
2022/07/09 04:59:28;;;;;;;8.55;3.38;;;;;;;15.23;81.29;99943.88;8401581;28;20055;-76
2022/07/09 05:03:30;;;;;;;12.48;3.20;;;;;;;15.17;81.69;99945.94;8401438;28;20075;-76
2022/07/09 05:07:33;;;;;;;9.63;3.00;;;;;;;15.06;81.94;99944.63;8425296;28;20055;-76
2022/07/09 05:11:33;;;;;;;9.10;3.05;;;;;;;14.99;82.44;99949.72;8390587;28;20048;-76
2022/07/09 05:15:34;;;;;;;6.22;3.05;;;;;;;15.06;82.18;99950.06;8380531;28;20100;-76
2022/07/09 05:19:36;;;;;;;13.00;3.20;;;;;;;15.13;82.26;99958.56;8391213;28;20044;-75
2022/07/09 05:23:37;;;;;;;9.50;3.70;;;;;;;15.28;81.81;99952.63;8397318;28;20052;-76
2022/07/09 05:27:43;;;;;;;9.00;3.70;;;;;;;15.34;81.51;99951.38;8424420;28;20105;-75
2022/07/09 05:31:44;;;;;;;8.63;3.45;;;;;;;15.25;81.86;99947.84;8429254;28;20040;-76
2022/07/09 05:35:44;;;;;;;8.00;3.30;;;;;;;15.31;81.91;99941.13;8430378;28;20044;-76
2022/07/09 05:39:46;;;;;;;6.13;3.00;;;;;;;15.39;81.69;99945.75;8432551;28;20043;-75
2022/07/09 05:43:46;;;;;;;10.52;3.30;;;;;;;15.43;81.34;99944.03;8379023;28;20044;-76
2022/07/09 05:47:47;;;;;;;11.73;3.40;;;;;;;15.47;81.40;99944.97;8396922;28;20139;-75
2022/07/09 05:51:48;;;;;;;13.52;3.53;;;;;;;15.57;81.02;99944.69;8418867;28;20098;-75
2022/07/09 05:55:49;;;;;;;8.43;3.15;;;;;;;15.54;81.10;99937.19;8430029;28;20044;-76
2022/07/09 05:59:50;;;;;;;10.82;3.63;;;;;;;15.55;80.79;99941.47;8417800;28;20079;-76
2022/07/09 06:03:52;;;;;;;12.65;3.70;;;;;;;15.59;80.80;99931.56;8409778;28;20461;-77
2022/07/09 06:07:53;;;;;;;7.53;3.30;;;;;;;15.64;80.56;99933.31;8334202;28;20055;-75
2022/07/09 06:11:54;;;;;;;7.43;3.03;;;;;;;15.67;80.66;99915.53;8412250;28;20487;-76
2022/07/09 06:15:55;;;;;;;14.27;3.10;;;;;;;15.80;80.78;99904.47;8413778;28;20048;-75
2022/07/09 06:19:56;;;;;;;11.88;2.95;;;;;;;15.97;80.69;99898.16;8407044;28;20029;-76
2022/07/09 06:23:57;;;;;;;9.82;3.13;;;;;;;16.03;80.31;99902.28;8421428;28;21275;-75
2022/07/09 06:27:58;;;;;;;11.80;3.15;;;;;;;16.07;79.88;99908.72;8431223;28;20056;-76
2022/07/09 06:32:00;;;;;;;4.25;2.60;;;;;;;15.98;79.33;99905.19;8430630;28;20047;-75
2022/07/09 06:36:01;;;;;;;9.32;3.53;;;;;;;15.90;79.78;99903.31;8428758;28;20298;-76
2022/07/09 06:40:04;;;;;;;12.13;3.53;;;;;;;16.03;79.88;99907.75;8422231;28;20126;-76
2022/07/09 06:44:05;;;;;;;10.82;3.65;;;;;;;16.22;79.75;99910.91;8383224;28;20452;-75
2022/07/09 06:48:06;;;;;;;11.77;3.22;;;;;;;16.33;79.00;99901.25;8427822;28;20089;-76
2022/07/09 06:52:07;;;;;;;10.75;2.83;;;;;;;16.51;78.06;99907.41;8387611;28;20056;-78
2022/07/09 06:56:08;;;;;;;7.80;2.92;;;;;;;16.86;77.08;99891.69;8430106;28;20059;-75
2022/07/09 07:00:10;;;;;;;9.35;3.05;;;;;;;16.94;75.99;99888.09;8429754;28;20468;-79
2022/07/09 07:04:14;;;;;;;13.05;2.70;;;;;;;17.18;74.88;99885.47;8429823;28;20487;-76
2022/07/09 07:08:17;;;;;;;9.05;2.53;;;;;;;17.36;74.91;99888.88;8369771;28;20101;-76
2022/07/09 07:12:18;;;;;;;8.00;3.05;;;;;;;17.23;74.49;99896.22;8424105;28;20135;-76
2022/07/09 07:16:20;;;;;;;6.70;3.20;;;;;;;16.96;74.62;99899.47;8427022;28;20518;-76
2022/07/09 07:20:24;;;;;;;8.02;2.88;;;;;;;16.93;74.76;99897.41;8429521;28;20040;-76
2022/07/09 07:24:30;;;;;;;9.52;2.90;;;;;;;17.24;74.52;99889.63;8428917;28;20039;-76
2022/07/09 07:28:34;;;;;;;11.65;2.80;;;;;;;17.68;72.45;99890.06;8422867;28;20043;-75
2022/07/09 07:32:34;;;;;;;9.20;2.75;;;;;;;17.93;70.00;99879.97;8424901;28;20044;-76
2022/07/09 07:36:35;;;;;;;8.75;2.05;;;;;;;17.92;69.48;99884.69;8428343;28;20051;-76
2022/07/09 07:40:37;;;;;;;5.60;2.20;;;;;;;17.82;69.10;99885.06;8425650;28;20040;-75
2022/07/09 07:44:37;;;;;;;6.40;2.00;;;;;;;17.79;68.60;99891.22;8412943;28;20060;-75
2022/07/09 07:48:41;;;;;;;6.85;2.17;;;;;;;17.72;68.77;99890.97;8424806;28;20060;-77
2022/07/09 07:52:41;;;;;;;5.90;2.17;;;;;;;17.81;67.15;99888.97;8370549;28;20044;-76
2022/07/09 07:56:42;;;;;;;4.95;1.90;;;;;;;18.23;64.39;99880.63;8417909;28;20048;-77
2022/07/09 08:00:43;;;;;;;9.52;2.08;;;;;;;18.64;63.78;99885.88;8424376;28;20127;-75
2022/07/09 08:04:44;;;;;;;7.32;2.00;;;;;;;18.74;62.93;99882.69;8415147;28;20044;-76
2022/07/09 08:08:45;;;;;;;8.93;1.90;;;;;;;18.70;62.98;99881.78;8424277;28;20035;-76
2022/07/09 08:12:47;;;;;;;3.10;1.70;;;;;;;18.69;61.97;99890.31;8368468;28;20070;-75
2022/07/09 08:16:48;;;;;;;4.32;1.92;;;;;;;18.51;60.06;99886.97;8422242;28;20055;-76
2022/07/09 08:20:51;;;;;;;11.50;1.48;;;;;;;18.37;58.26;99883.81;8426667;28;20047;-74
2022/07/09 08:24:52;;;;;;;5.93;1.60;;;;;;;18.46;57.99;99881.75;8425001;28;20036;-76
2022/07/09 08:28:53;;;;;;;3.05;1.50;;;;;;;18.66;59.48;99880.06;8412131;28;20531;-76
2022/07/09 08:32:55;;;;;;;4.82;1.80;;;;;;;18.79;58.65;99879.72;8424891;28;20044;-74
2022/07/09 08:36:56;;;;;;;8.38;1.90;;;;;;;19.20;58.27;99883.25;8354803;28;20136;-76
2022/07/09 08:41:00;;;;;;;7.80;1.75;;;;;;;19.30;57.94;99872.59;8353792;28;20044;-76
2022/07/09 08:45:01;;;;;;;6.15;1.60;;;;;;;19.17;58.52;99873.00;8354915;28;21383;-75
2022/07/09 08:49:03;;;;;;;5.75;1.60;;;;;;;19.27;56.96;99867.03;8347746;28;20401;-77
2022/07/09 08:53:04;;;;;;;4.20;1.88;;;;;;;19.52;56.69;99863.06;8347653;28;20511;-76
2022/07/09 08:57:06;;;;;;;2.80;1.40;;;;;;;19.78;56.95;99854.38;8338436;28;20041;-77
2022/07/09 09:01:08;;;;;;;8.32;2.05;;;;;;;19.59;56.22;99868.75;8338063;28;20473;-76
2022/07/09 09:05:13;;;;;;;8.00;1.85;;;;;;;19.78;55.66;99857.13;8356243;28;20056;-76
2022/07/09 09:09:23;;;;;;;6.75;1.95;;;;;;;20.01;53.47;99846.34;8356844;28;20048;-75
2022/07/09 09:13:24;;;;;;;6.03;2.10;;;;;;;19.68;54.55;99850.22;8387378;28;20056;-74
2022/07/09 09:17:25;;;;;;;6.68;1.63;;;;;;;19.43;54.30;99854.19;8426419;28;20539;-75
2022/07/09 09:21:27;;;;;;;5.55;1.83;;;;;;;19.43;54.29;99859.66;8424545;28;20040;-75
2022/07/09 09:25:28;;;;;;;6.40;1.40;;;;;;;19.71;55.92;99849.53;8419219;28;20571;-76
2022/07/09 09:29:30;;;;;;;4.72;1.75;;;;;;;19.66;51.37;99841.56;8421149;28;20044;-76
2022/07/09 09:33:31;;;;;;;5.15;1.33;;;;;;;19.79;51.42;99834.03;8420506;28;20460;-75
2022/07/09 09:37:32;;;;;;;5.32;1.77;;;;;;;20.09;51.34;99842.66;8413394;28;20044;-76
2022/07/09 09:41:33;;;;;;;5.38;1.73;;;;;;;20.42;50.17;99831.31;8426051;28;20518;-75
2022/07/09 09:45:34;;;;;;;5.85;1.63;;;;;;;20.65;50.96;99833.03;8420220;28;20131;-74
2022/07/09 09:49:37;;;;;;;4.00;1.50;;;;;;;21.00;49.01;99837.72;8406407;28;20044;-74
2022/07/09 09:53:38;;;;;;;5.85;1.70;;;;;;;20.63;48.65;99818.88;8424616;28;20090;-76
2022/07/09 09:57:40;;;;;;;6.63;1.70;;;;;;;20.71;49.09;99819.03;8369554;28;20048;-74
2022/07/09 10:01:42;;;;;;;5.30;1.95;;;;;;;20.58;50.56;99816.41;8425892;28;20040;-75
2022/07/09 10:05:43;;;;;;;7.75;1.75;;;;;;;20.28;50.73;99812.56;8425099;28;20048;-75
2022/07/09 10:09:58;;;;;;;5.80;1.60;;;;;;;20.51;48.75;99813.53;8423435;28;20629;-75
2022/07/09 10:13:59;;;;;;;8.20;1.73;;;;;;;20.75;48.75;99797.94;8422227;28;20044;-76
2022/07/09 10:18:10;;;;;;;4.78;1.60;;;;;;;20.75;49.17;99803.44;8418898;28;20048;-76
2022/07/09 10:22:12;;;;;;;13.13;1.60;;;;;;;20.77;47.25;99801.16;8343961;28;20048;-75
2022/07/09 10:26:12;;;;;;;9.63;1.88;;;;;;;20.89;48.63;99798.25;8354697;28;20048;-75
2022/07/09 10:30:36;;;;;;;9.43;1.80;;;;;;;21.24;49.36;99787.22;8340709;28;20136;-76
2022/07/09 10:34:46;;;;;;;9.60;1.90;;;;;;;21.58;48.14;99790.97;8348570;28;20133;-76
2022/07/09 10:38:55;;;;;;;10.20;1.70;;;;;;;21.67;47.86;99786.06;8350464;28;20048;-75
2022/07/09 10:43:01;;;;;;;9.88;1.80;;;;;;;21.57;47.66;99792.16;8349037;28;20045;-75
2022/07/09 10:47:04;;;;;;;6.00;1.95;;;;;;;21.62;47.46;99780.88;8357668;28;20478;-77
2022/07/09 10:51:05;;;;;;;3.50;1.40;;;;;;;21.91;46.91;99777.44;8299852;28;20064;-78
2022/07/09 10:55:08;;;;;;;6.68;1.58;;;;;;;22.00;46.61;99775.25;8295815;28;20037;-76
2022/07/09 10:59:08;;;;;;;14.05;2.40;;;;;;;21.96;45.92;99779.91;8343778;28;20052;-74
2022/07/09 11:03:11;;;;;;;5.95;1.88;;;;;;;21.95;45.47;99778.31;8415727;28;20044;-74
2022/07/09 11:07:21;;;;;;;10.55;1.88;;;;;;;22.08;46.45;99776.97;8423701;28;20056;-75
2022/07/09 11:11:23;;;;;;;8.10;1.73;;;;;;;22.51;45.05;99777.59;8417326;28;20063;-78
2022/07/09 11:15:26;;;;;;;4.97;1.65;;;;;;;22.80;44.63;99785.09;8370443;28;20054;-75
2022/07/09 11:19:30;;;;;;;3.65;1.58;;;;;;;22.87;45.13;99785.19;8387763;28;20052;-74
2022/07/09 11:23:31;;;;;;;8.25;1.90;;;;;;;22.66;44.20;99782.13;8427649;28;20076;-74
2022/07/09 11:27:32;;;;;;;5.80;1.35;;;;;;;22.36;46.00;99792.31;8427820;28;20052;-75
2022/07/09 11:31:33;;;;;;;7.72;1.90;;;;;;;22.50;45.98;99787.00;8409659;28;20169;-74
2022/07/09 11:35:35;;;;;;;4.78;1.75;;;;;;;22.65;45.46;99794.28;8424768;28;20044;-73
2022/07/09 11:39:36;;;;;;;7.22;1.70;;;;;;;22.82;44.36;99793.78;8424065;28;20066;-74
2022/07/09 11:43:37;;;;;;;4.10;1.70;;;;;;;22.62;44.35;99795.06;8427866;28;20044;-75
2022/07/09 11:47:39;;;;;;;10.13;2.67;;;;;;;22.82;44.77;99785.50;8423806;28;20415;-75
2022/07/09 11:51:41;;;;;;;5.75;2.13;;;;;;;23.12;44.02;99786.28;8362976;28;20060;-74
2022/07/09 11:55:42;;;;;;;6.32;2.00;;;;;;;22.92;45.04;99789.56;8426475;28;20071;-74
2022/07/09 11:59:42;;;;;;;5.18;1.63;;;;;;;22.82;46.13;99787.47;8389381;28;20047;-74
2022/07/09 12:03:48;;;;;;;7.72;2.53;;;;;;;23.02;45.51;99786.94;8427258;28;20105;-75
2022/07/09 12:07:53;;;;;;;9.70;2.38;;;;;;;22.70;46.76;99780.19;8414020;28;20761;-74
2022/07/09 12:11:54;;;;;;;4.72;2.33;;;;;;;22.21;47.16;99781.06;8421017;28;20048;-76
2022/07/09 12:15:55;;;;;;;6.63;2.83;;;;;;;21.92;47.80;99784.53;8417980;28;20513;-74
2022/07/09 12:19:57;;;;;;;4.75;2.55;;;;;;;22.09;47.00;99783.25;8423354;28;20135;-74
2022/07/09 12:23:58;;;;;;;9.50;2.90;;;;;;;22.42;46.28;99774.31;8420602;28;20040;-74
2022/07/09 12:27:59;;;;;;;6.47;2.75;;;;;;;22.67;47.40;99764.44;8384877;28;20052;-74
2022/07/09 12:32:00;;;;;;;4.90;2.70;;;;;;;22.21;46.77;99767.31;8417607;28;20052;-74
2022/07/09 12:36:02;;;;;;;8.98;2.97;;;;;;;22.03;47.73;99760.78;8383284;28;20467;-74
2022/07/09 12:40:04;;;;;;;8.30;3.70;;;;;;;22.05;47.53;99766.69;8399398;28;20049;-73
2022/07/09 12:44:05;;;;;;;6.78;3.13;;;;;;;22.27;48.28;99757.59;8419854;28;20494;-77
2022/07/09 12:48:06;;;;;;;7.88;3.13;;;;;;;22.24;47.55;99758.34;8416690;28;20515;-73
2022/07/09 12:52:08;;;;;;;6.35;3.30;;;;;;;22.06;47.87;99762.78;8408822;28;20047;-74
2022/07/09 12:56:09;;;;;;;6.85;3.38;;;;;;;22.04;48.35;99754.13;8407237;28;20043;-73
2022/07/09 13:00:10;;;;;;;4.72;2.33;;;;;;;22.14;48.10;99747.97;8384055;28;20101;-74
2022/07/09 13:04:11;;;;;;;4.55;2.22;;;;;;;22.17;47.40;99769.22;8369951;28;20052;-73
2022/07/09 13:08:12;;;;;;;5.60;2.30;;;;;;;22.18;47.89;99754.31;8397489;28;20071;-74
2022/07/09 13:12:14;;;;;;;7.93;2.42;;;;;;;22.27;47.14;99752.09;8367255;28;20126;-74
2022/07/09 13:16:15;;;;;;;7.90;2.85;;;;;;;22.07;47.13;99742.34;8413824;28;20054;-73
2022/07/09 13:20:17;;;;;;;7.43;2.20;;;;;;;22.16;47.86;99751.13;8415262;28;20048;-72
2022/07/09 13:24:19;;;;;;;7.75;2.00;;;;;;;22.20;47.49;99741.00;8410445;28;20064;-72
2022/07/09 13:28:20;;;;;;;5.85;2.17;;;;;;;22.32;47.30;99738.00;8327940;28;20040;-72
2022/07/09 13:32:22;;;;;;;7.63;2.55;;;;;;;22.44;47.50;99739.75;8413555;28;20056;-73
2022/07/09 13:36:23;;;;;;;5.70;2.40;;;;;;;22.40;47.05;99732.63;8410414;28;20558;-72
2022/07/09 13:40:24;;;;;;;5.60;2.10;;;;;;;22.04;47.69;99726.59;8378593;28;20341;-72
2022/07/09 13:44:26;;;;;;;7.28;2.20;;;;;;;21.78;48.60;99718.31;8423010;28;20052;-73
2022/07/09 13:48:27;;;;;;;5.28;2.13;;;;;;;21.67;48.84;99709.09;8386193;28;20044;-72
2022/07/09 13:52:29;;;;;;;5.65;2.40;;;;;;;21.67;49.65;99711.84;8426276;28;20046;-73
2022/07/09 13:56:30;;;;;;;7.15;2.85;;;;;;;21.76;49.16;99704.13;8384790;28;20040;-73
2022/07/09 14:00:31;;;;;;;6.30;2.80;;;;;;;21.97;48.57;99707.25;8423406;28;20059;-72
2022/07/09 14:04:32;;;;;;;7.57;3.53;;;;;;;21.92;48.46;99697.31;8423493;28;20058;-73
2022/07/09 14:08:33;;;;;;;6.38;3.45;;;;;;;21.83;48.88;99685.00;8423102;28;20525;-73
2022/07/09 14:12:34;;;;;;;7.53;3.10;;;;;;;22.03;48.81;99697.50;8423471;28;20055;-73
2022/07/09 14:16:35;;;;;;;10.43;3.60;;;;;;;22.90;46.86;99685.28;8417423;28;20045;-72
2022/07/09 14:20:36;;;;;;;6.70;2.97;;;;;;;22.79;46.71;99684.34;8417747;28;20044;-72
2022/07/09 14:24:37;;;;;;;11.55;3.38;;;;;;;22.38;47.60;99677.94;8416952;28;20135;-73
2022/07/09 14:28:38;;;;;;;6.43;2.80;;;;;;;22.04;48.41;99677.09;8411844;28;20495;-74
2022/07/09 14:32:39;;;;;;;8.32;2.78;;;;;;;21.73;49.91;99677.38;8383012;28;20480;-73
2022/07/09 14:36:40;;;;;;;6.95;3.17;;;;;;;21.58;50.15;99670.06;8425887;28;20091;-73
2022/07/09 14:40:41;;;;;;;11.00;3.28;;;;;;;22.59;49.01;99669.16;8393568;28;20051;-73
2022/07/09 14:44:42;;;;;;;5.00;2.65;;;;;;;23.13;47.17;99661.13;8410154;28;20036;-73
2022/07/09 14:48:48;;;;;;;5.60;2.70;;;;;;;23.41;45.76;99665.31;8411048;28;20117;-73
2022/07/09 14:52:49;;;;;;;6.82;2.28;;;;;;;24.92;43.15;99661.09;8415705;28;20048;-73
2022/07/09 14:56:52;;;;;;;6.45;2.65;;;;;;;26.53;41.13;99666.16;8418465;28;20047;-73
2022/07/09 15:01:00;;;;;;;6.47;2.28;;;;;;;28.02;37.64;99655.56;8389785;28;20555;-73
2022/07/09 15:05:02;;;;;;;9.95;2.38;;;;;;;27.11;38.10;99657.94;8417315;28;20048;-74
2022/07/09 15:09:05;;;;;;;7.45;1.85;;;;;;;27.72;38.65;99641.59;8381063;28;20109;-74
2022/07/09 15:13:06;;;;;;;6.05;1.90;;;;;;;28.73;35.49;99649.22;8331972;28;20663;-74
2022/07/09 15:17:07;;;;;;;6.55;2.38;;;;;;;29.66;33.96;99643.81;8427253;28;20953;-72
2022/07/09 15:21:10;;;;;;;5.68;1.60;;;;;;;30.09;32.47;99631.91;8412109;28;20047;-74
2022/07/09 15:25:11;;;;;;;5.72;2.10;;;;;;;29.98;33.03;99628.56;8419398;28;20454;-74
2022/07/09 15:29:12;;;;;;;4.55;1.70;;;;;;;30.12;32.62;99625.50;8414614;28;20101;-74
2022/07/09 15:33:15;;;;;;;5.78;1.92;;;;;;;27.33;36.74;99610.66;8423185;28;20396;-74
2022/07/09 15:37:16;;;;;;;5.20;1.75;;;;;;;27.12;37.32;99609.63;8417285;28;20036;-73
2022/07/09 15:41:17;;;;;;;5.97;1.70;;;;;;;28.54;35.54;99602.63;8397507;28;20718;-74
2022/07/09 15:45:21;;;;;;;5.47;1.77;;;;;;;28.08;35.36;99581.72;8423341;28;20044;-74
2022/07/09 15:49:22;;;;;;;6.07;1.80;;;;;;;27.30;36.92;99582.53;8418285;28;20087;-74
2022/07/09 15:53:23;;;;;;;5.57;1.73;;;;;;;26.92;37.52;99578.06;8372808;28;20449;-74
2022/07/09 15:57:24;;;;;;;5.40;1.50;;;;;;;26.54;37.39;99574.34;8409587;28;20043;-74
2022/07/09 16:01:26;;;;;;;2.65;1.55;;;;;;;25.93;38.71;99570.22;8413321;28;20051;-74
2022/07/09 16:05:27;;;;;;;4.78;1.73;;;;;;;25.43;39.95;99555.72;8419903;28;20427;-73
2022/07/09 16:09:28;;;;;;;1.83;1.30;;;;;;;25.22;40.34;99562.06;8413467;28;20059;-73
2022/07/09 16:13:29;;;;;;;5.38;1.70;;;;;;;24.97;41.16;99555.72;8415529;28;20507;-74
2022/07/09 16:17:30;;;;;;;2.47;1.50;;;;;;;24.44;41.07;99556.41;8416422;28;20052;-74
2022/07/09 16:21:31;;;;;;;6.07;1.70;;;;;;;24.18;42.09;99564.97;8417045;28;20051;-75
2022/07/09 16:25:32;;;;;;;4.30;1.58;;;;;;;23.53;42.56;99557.53;8399284;28;20550;-74
2022/07/09 16:29:33;;;;;;;2.95;1.40;;;;;;;23.08;44.14;99559.53;8418440;28;20072;-74
2022/07/09 16:33:34;;;;;;;2.97;1.80;;;;;;;22.65;45.11;99557.53;8384417;28;20048;-74
2022/07/09 16:37:35;;;;;;;4.95;1.70;;;;;;;22.43;46.04;99550.22;8413396;28;20097;-73
2022/07/09 16:41:36;;;;;;;4.18;1.40;;;;;;;22.15;46.68;99551.50;8420861;28;20403;-73
2022/07/09 16:45:39;;;;;;;5.95;1.63;;;;;;;22.01;47.47;99545.81;8421366;28;20051;-73
2022/07/09 16:49:41;;;;;;;2.97;1.60;;;;;;;22.08;47.92;99540.41;8371211;28;20044;-73
2022/07/09 16:53:43;;;;;;;4.38;1.55;;;;;;;22.62;46.52;99541.78;8411362;28;20101;-73
2022/07/09 16:57:49;;;;;;;4.35;1.60;;;;;;;22.71;45.83;99550.56;8413884;28;20044;-73
2022/07/09 17:01:50;;;;;;;4.25;1.77;;;;;;;22.36;46.57;99544.66;8417307;28;20181;-73
2022/07/09 17:05:51;;;;;;;6.55;1.77;;;;;;;22.00;47.66;99546.97;8411217;28;20044;-73
2022/07/09 17:09:52;;;;;;;4.45;1.85;;;;;;;21.96;48.33;99548.91;8407365;28;20063;-73
2022/07/09 17:13:55;;;;;;;3.72;1.55;;;;;;;21.85;48.43;99536.94;8416300;28;20162;-73
2022/07/09 17:17:57;;;;;;;4.38;1.77;;;;;;;21.51;49.20;99543.56;8360344;28;20137;-73
2022/07/09 17:21:58;;;;;;;3.05;1.77;;;;;;;21.35;50.03;99541.75;8397485;28;20051;-73
2022/07/09 17:25:59;;;;;;;4.97;1.83;;;;;;;21.17;50.82;99546.19;8381495;28;20106;-74
2022/07/09 17:30:00;;;;;;;4.22;1.70;;;;;;;21.02;51.33;99538.84;8403066;28;20105;-73
2022/07/09 17:34:01;;;;;;;3.58;1.52;;;;;;;20.89;51.38;99529.19;8414374;28;20169;-74
2022/07/09 17:38:02;;;;;;;5.43;1.70;;;;;;;20.51;52.00;99536.41;8392177;28;20094;-73
2022/07/09 17:42:04;;;;;;;2.65;1.40;;;;;;;20.38;52.46;99534.97;8410255;28;20044;-74
2022/07/09 17:46:09;;;;;;;2.90;1.33;;;;;;;20.22;52.67;99534.25;8416353;28;20487;-74
2022/07/09 17:50:12;;;;;;;3.60;1.20;;;;;;;20.16;52.50;99519.22;8372445;28;20474;-74
2022/07/09 17:54:14;;;;;;;1.52;1.40;;;;;;;20.17;52.97;99515.34;8384911;28;20206;-73
2022/07/09 17:58:16;;;;;;;2.53;1.75;;;;;;;20.06;53.25;99519.81;8424993;28;20488;-74
2022/07/09 18:02:20;;;;;;;4.63;1.90;;;;;;;19.99;53.69;99525.16;8426001;28;20055;-74
2022/07/09 18:06:21;;;;;;;2.83;1.85;;;;;;;19.90;54.23;99516.38;8424576;28;20052;-74
2022/07/09 18:10:23;;;;;;;2.55;1.75;;;;;;;19.72;54.31;99511.28;8380968;28;20093;-74
2022/07/09 18:14:24;;;;;;;4.65;2.10;;;;;;;19.52;55.09;99517.13;8422914;28;20093;-76
2022/07/09 18:18:25;;;;;;;3.90;2.67;;;;;;;19.39;55.71;99513.69;8380039;28;20552;-74
2022/07/09 18:22:26;;;;;;;5.22;2.60;;;;;;;19.27;56.16;99517.31;8422604;28;20111;-74
2022/07/09 18:26:28;;;;;;;4.13;2.50;;;;;;;19.09;56.90;99518.06;8419195;28;20440;-72
2022/07/09 18:30:30;;;;;;;3.63;2.55;;;;;;;18.94;57.65;99519.66;8368555;28;20040;-74
2022/07/09 18:34:31;;;;;;;5.55;2.65;;;;;;;18.75;58.60;99511.38;8423874;28;20064;-73
2022/07/09 18:38:32;;;;;;;5.63;3.13;;;;;;;18.62;59.34;99501.66;8426854;28;20075;-82
2022/07/09 18:42:33;;;;;;;3.00;2.40;;;;;;;18.45;60.53;99502.78;8420642;28;20129;-75
2022/07/09 18:46:34;;;;;;;3.17;2.70;;;;;;;18.27;61.58;99506.97;8418154;28;20568;-73
2022/07/09 18:50:36;;;;;;;5.63;2.90;;;;;;;18.06;62.69;99510.72;8425901;28;20052;-74
2022/07/09 18:54:37;;;;;;;4.40;3.38;;;;;;;17.91;63.44;99506.00;8423380;28;20048;-74